createdAt,value
2017-09-29T00:00:18.599Z,0
2017-09-29T00:00:59.144Z,0
2017-09-29T00:01:39.686Z,0
2017-09-29T00:02:20.210Z,0
2017-09-29T00:03:00.745Z,0
2017-09-29T00:03:41.280Z,0
2017-09-29T00:04:21.810Z,0
2017-09-29T00:05:02.350Z,0
2017-09-29T00:05:42.885Z,0
2017-09-29T00:06:23.427Z,0
2017-09-29T00:07:03.966Z,0
2017-09-29T00:07:44.490Z,0
2017-09-29T00:08:25.026Z,0
2017-09-29T00:09:05.563Z,0
2017-09-29T00:09:46.108Z,0
2017-09-29T00:10:26.631Z,0
2017-09-29T00:11:07.158Z,0
2017-09-29T00:11:47.696Z,0
2017-09-29T00:12:28.235Z,0
2017-09-29T00:13:08.788Z,0
2017-09-29T00:13:49.311Z,0
2017-09-29T00:14:29.839Z,0
2017-09-29T00:15:10.369Z,0
2017-09-29T00:15:50.884Z,0
2017-09-29T00:16:31.426Z,0
2017-09-29T00:17:11.965Z,0
2017-09-29T00:17:52.493Z,0
2017-09-29T00:18:33.025Z,0
2017-09-29T00:19:13.536Z,0
2017-09-29T00:19:54.081Z,0
2017-09-29T00:20:34.616Z,0
2017-09-29T00:21:15.160Z,0
2017-09-29T00:21:55.697Z,0
2017-09-29T00:22:36.236Z,0
2017-09-29T00:23:16.782Z,0
2017-09-29T00:23:57.314Z,0
2017-09-29T00:24:37.854Z,0
2017-09-29T00:25:18.388Z,0
2017-09-29T00:25:58.932Z,0
2017-09-29T00:26:39.456Z,0
2017-09-29T00:27:19.971Z,0
2017-09-29T00:28:00.506Z,0
2017-09-29T00:28:41.077Z,0
2017-09-29T00:29:21.606Z,0
2017-09-29T00:30:02.129Z,0
2017-09-29T00:30:42.683Z,0
2017-09-29T00:31:23.232Z,0
2017-09-29T00:32:03.756Z,0
2017-09-29T00:32:44.345Z,0
2017-09-29T00:33:24.822Z,0
2017-09-29T00:34:05.338Z,0
2017-09-29T00:34:45.859Z,0
2017-09-29T00:35:26.396Z,0
2017-09-29T00:36:06.932Z,0
2017-09-29T00:36:47.470Z,0
2017-09-29T00:37:28.005Z,0
2017-09-29T00:38:08.544Z,0
2017-09-29T00:38:49.091Z,0
2017-09-29T00:39:29.630Z,0
2017-09-29T00:40:10.166Z,0
2017-09-29T00:40:50.699Z,0
2017-09-29T00:41:31.235Z,0
2017-09-29T00:42:11.762Z,0
2017-09-29T00:42:52.293Z,0
2017-09-29T00:43:32.829Z,0
2017-09-29T00:44:13.365Z,0
2017-09-29T00:44:53.913Z,0
2017-09-29T00:45:34.434Z,0
2017-09-29T00:46:14.969Z,0
2017-09-29T00:46:55.515Z,0
2017-09-29T00:47:36.044Z,0
2017-09-29T00:48:16.580Z,0
2017-09-29T00:48:57.115Z,0
2017-09-29T00:49:37.645Z,0
2017-09-29T00:50:18.152Z,0
2017-09-29T00:50:58.692Z,0
2017-09-29T00:51:39.233Z,0
2017-09-29T00:52:19.771Z,0
2017-09-29T00:53:00.318Z,0
2017-09-29T00:53:40.843Z,0
2017-09-29T00:54:21.362Z,0
2017-09-29T00:55:01.901Z,0
2017-09-29T00:55:42.432Z,0
2017-09-29T00:56:22.950Z,0
2017-09-29T00:57:03.480Z,0
2017-09-29T00:57:44.009Z,0
2017-09-29T00:58:24.535Z,0
2017-09-29T00:59:05.060Z,0
2017-09-29T00:59:45.578Z,0
2017-09-29T01:00:26.107Z,0
2017-09-29T01:01:06.709Z,0
2017-09-29T01:01:48.885Z,0
2017-09-29T01:02:29.422Z,0
2017-09-29T01:03:09.948Z,0
2017-09-29T01:03:50.476Z,0
2017-09-29T01:04:31.006Z,0
2017-09-29T01:05:11.542Z,0
2017-09-29T01:05:52.085Z,0
2017-09-29T01:06:32.622Z,0
2017-09-29T01:07:13.157Z,0
2017-09-29T01:07:53.709Z,0
2017-09-29T01:08:34.250Z,0
2017-09-29T01:09:14.791Z,0
2017-09-29T01:09:55.323Z,0
2017-09-29T01:10:35.854Z,0
2017-09-29T01:11:16.378Z,0
2017-09-29T01:11:56.911Z,0
2017-09-29T01:12:37.448Z,0
2017-09-29T01:13:17.977Z,0
2017-09-29T01:13:58.517Z,0
2017-09-29T01:14:39.044Z,0
2017-09-29T01:15:19.572Z,0
2017-09-29T01:16:00.118Z,0
2017-09-29T01:16:40.654Z,0
2017-09-29T01:17:21.203Z,0
2017-09-29T01:18:01.739Z,0
2017-09-29T01:18:42.274Z,0
2017-09-29T01:19:22.803Z,0
2017-09-29T01:20:03.341Z,0
2017-09-29T01:20:43.845Z,0
2017-09-29T01:21:24.389Z,0
2017-09-29T01:22:04.920Z,0
2017-09-29T01:22:45.437Z,0
2017-09-29T01:23:25.977Z,0
2017-09-29T01:24:06.491Z,0
2017-09-29T01:24:47.030Z,0
2017-09-29T01:25:27.559Z,0
2017-09-29T01:26:08.099Z,0
2017-09-29T01:26:48.642Z,0
2017-09-29T01:27:29.171Z,0
2017-09-29T01:28:09.711Z,0
2017-09-29T01:28:50.247Z,0
2017-09-29T01:29:30.784Z,0
2017-09-29T01:30:11.313Z,0
2017-09-29T01:30:51.843Z,0
2017-09-29T01:31:32.374Z,0
2017-09-29T01:32:12.903Z,0
2017-09-29T01:32:53.445Z,0
2017-09-29T01:33:33.974Z,0
2017-09-29T01:34:14.510Z,0
2017-09-29T01:34:55.038Z,0
2017-09-29T01:35:35.575Z,0
2017-09-29T01:36:16.133Z,0
2017-09-29T01:36:56.674Z,0
2017-09-29T01:37:37.212Z,0
2017-09-29T01:38:17.773Z,0
2017-09-29T01:38:58.277Z,0
2017-09-29T01:39:38.814Z,0
2017-09-29T01:40:19.379Z,0
2017-09-29T01:40:59.882Z,0
2017-09-29T01:41:40.415Z,0
2017-09-29T01:42:20.945Z,0
2017-09-29T01:43:01.475Z,0
2017-09-29T01:43:41.999Z,0
2017-09-29T01:44:22.534Z,0
2017-09-29T01:45:03.079Z,0
2017-09-29T01:45:43.619Z,0
2017-09-29T01:46:24.147Z,0
2017-09-29T01:47:04.689Z,0
2017-09-29T01:47:45.219Z,0
2017-09-29T01:48:25.754Z,0
2017-09-29T01:49:06.288Z,0
2017-09-29T01:49:46.832Z,0
2017-09-29T01:50:27.374Z,0
2017-09-29T01:51:07.922Z,0
2017-09-29T01:51:48.438Z,0
2017-09-29T01:52:28.973Z,0
2017-09-29T01:53:09.507Z,0
2017-09-29T01:53:50.034Z,0
2017-09-29T01:54:30.587Z,0
2017-09-29T01:55:11.133Z,0
2017-09-29T01:55:51.643Z,0
2017-09-29T01:56:32.185Z,0
2017-09-29T01:57:12.691Z,0
2017-09-29T01:57:53.231Z,0
2017-09-29T01:58:33.762Z,0
2017-09-29T01:59:14.277Z,0
2017-09-29T01:59:54.800Z,0
2017-09-29T02:00:35.350Z,0
2017-09-29T02:01:15.881Z,0
2017-09-29T02:01:56.415Z,0
2017-09-29T02:02:36.948Z,0
2017-09-29T02:03:17.478Z,0
2017-09-29T02:03:58.006Z,0
2017-09-29T02:04:38.540Z,0
2017-09-29T02:05:19.069Z,0
2017-09-29T02:05:59.592Z,0
2017-09-29T02:06:40.129Z,0
2017-09-29T02:07:20.651Z,0
2017-09-29T02:08:01.187Z,0
2017-09-29T02:08:41.739Z,0
2017-09-29T02:09:22.268Z,0
2017-09-29T02:10:02.807Z,0
2017-09-29T02:10:43.351Z,0
2017-09-29T02:11:23.874Z,0
2017-09-29T02:12:04.414Z,0
2017-09-29T02:12:44.941Z,0
2017-09-29T02:13:25.467Z,0
2017-09-29T02:14:05.998Z,0
2017-09-29T02:14:46.523Z,0
2017-09-29T02:15:27.053Z,0
2017-09-29T02:16:07.594Z,0
2017-09-29T02:16:48.131Z,0
2017-09-29T02:17:28.657Z,0
2017-09-29T02:18:09.190Z,0
2017-09-29T02:18:49.726Z,0
2017-09-29T02:19:30.256Z,0
2017-09-29T02:20:10.794Z,0
2017-09-29T02:20:51.347Z,0
2017-09-29T02:21:31.874Z,0
2017-09-29T02:22:12.397Z,0
2017-09-29T02:22:52.957Z,0
2017-09-29T02:23:33.489Z,0
2017-09-29T02:24:14.019Z,0
2017-09-29T02:24:54.561Z,0
2017-09-29T02:25:35.088Z,0
2017-09-29T02:26:15.640Z,0
2017-09-29T02:26:56.192Z,0
2017-09-29T02:27:36.691Z,0
2017-09-29T02:28:17.233Z,0
2017-09-29T02:28:57.772Z,0
2017-09-29T02:29:38.315Z,0
2017-09-29T02:30:18.857Z,0
2017-09-29T02:30:59.387Z,0
2017-09-29T02:31:39.932Z,0
2017-09-29T02:32:20.498Z,0
2017-09-29T02:33:01.004Z,0
2017-09-29T02:33:41.544Z,0
2017-09-29T02:34:22.085Z,0
2017-09-29T02:35:02.619Z,0
2017-09-29T02:35:43.158Z,0
2017-09-29T02:36:23.703Z,0
2017-09-29T02:37:04.236Z,0
2017-09-29T02:37:44.763Z,0
2017-09-29T02:38:25.296Z,0
2017-09-29T02:39:05.836Z,0
2017-09-29T02:39:46.370Z,0
2017-09-29T02:40:26.914Z,0
2017-09-29T02:41:07.453Z,0
2017-09-29T02:41:47.989Z,0
2017-09-29T02:42:28.518Z,0
2017-09-29T02:43:09.057Z,0
2017-09-29T02:43:49.577Z,0
2017-09-29T02:44:30.118Z,0
2017-09-29T02:45:10.647Z,0
2017-09-29T02:45:51.195Z,0
2017-09-29T02:46:31.705Z,0
2017-09-29T02:47:12.263Z,0
2017-09-29T02:47:52.778Z,0
2017-09-29T02:48:33.318Z,0
2017-09-29T02:49:13.866Z,0
2017-09-29T02:49:54.401Z,0
2017-09-29T02:50:34.925Z,0
2017-09-29T02:51:15.466Z,0
2017-09-29T02:51:56.010Z,0
2017-09-29T02:52:36.525Z,0
2017-09-29T02:53:17.058Z,0
2017-09-29T02:53:57.599Z,0
2017-09-29T02:54:38.127Z,0
2017-09-29T02:55:18.697Z,0
2017-09-29T02:55:59.199Z,0
2017-09-29T02:56:39.780Z,0
2017-09-29T02:57:20.278Z,0
2017-09-29T02:58:00.807Z,0
2017-09-29T02:58:41.356Z,0
2017-09-29T02:59:21.866Z,0
2017-09-29T03:00:02.408Z,0
2017-09-29T03:00:42.943Z,0
2017-09-29T03:01:23.489Z,0
2017-09-29T03:02:04.029Z,0
2017-09-29T03:02:44.571Z,0
2017-09-29T03:03:25.113Z,0
2017-09-29T03:04:05.658Z,0
2017-09-29T03:04:46.180Z,0
2017-09-29T03:05:26.705Z,0
2017-09-29T03:06:07.242Z,0
2017-09-29T03:06:47.781Z,0
2017-09-29T03:07:28.318Z,0
2017-09-29T03:08:08.859Z,0
2017-09-29T03:08:49.393Z,0
2017-09-29T03:09:29.963Z,0
2017-09-29T03:10:10.489Z,0
2017-09-29T03:10:51.030Z,0
2017-09-29T03:11:31.601Z,0
2017-09-29T03:12:12.137Z,0
2017-09-29T03:12:52.675Z,0
2017-09-29T03:13:33.215Z,0
2017-09-29T03:14:13.752Z,0
2017-09-29T03:14:54.289Z,0
2017-09-29T03:15:34.832Z,0
2017-09-29T03:16:15.373Z,0
2017-09-29T03:16:55.921Z,0
2017-09-29T03:17:36.438Z,0
2017-09-29T03:18:16.977Z,0
2017-09-29T03:18:57.510Z,0
2017-09-29T03:19:38.048Z,0
2017-09-29T03:20:18.573Z,0
2017-09-29T03:20:59.102Z,0
2017-09-29T03:21:39.635Z,0
2017-09-29T03:22:20.185Z,0
2017-09-29T03:23:00.729Z,0
2017-09-29T03:23:41.259Z,0
2017-09-29T03:24:21.796Z,0
2017-09-29T03:25:02.339Z,0
2017-09-29T03:25:42.886Z,0
2017-09-29T03:26:23.426Z,0
2017-09-29T03:27:03.968Z,0
2017-09-29T03:27:44.498Z,0
2017-09-29T03:28:25.029Z,0
2017-09-29T03:29:05.565Z,0
2017-09-29T03:29:46.102Z,0
2017-09-29T03:30:26.653Z,0
2017-09-29T03:31:07.197Z,0
2017-09-29T03:31:47.735Z,0
2017-09-29T03:32:28.266Z,0
2017-09-29T03:33:08.793Z,0
2017-09-29T03:33:49.329Z,0
2017-09-29T03:34:29.869Z,0
2017-09-29T03:35:10.405Z,0
2017-09-29T03:35:50.952Z,0
2017-09-29T03:36:31.488Z,0
2017-09-29T03:37:12.025Z,0
2017-09-29T03:37:52.554Z,0
2017-09-29T03:38:33.095Z,0
2017-09-29T03:39:13.636Z,0
2017-09-29T03:39:54.167Z,0
2017-09-29T03:40:34.712Z,0
2017-09-29T03:41:15.246Z,0
2017-09-29T03:41:55.791Z,0
2017-09-29T03:42:36.327Z,0
2017-09-29T03:43:16.857Z,0
2017-09-29T03:43:57.408Z,0
2017-09-29T03:44:37.952Z,0
2017-09-29T03:45:18.483Z,0
2017-09-29T03:45:59.021Z,0
2017-09-29T03:46:39.567Z,0
2017-09-29T03:47:20.114Z,0
2017-09-29T03:48:00.648Z,0
2017-09-29T03:48:41.188Z,0
2017-09-29T03:49:21.730Z,0
2017-09-29T03:50:02.271Z,0
2017-09-29T03:50:42.809Z,0
2017-09-29T03:51:23.491Z,0
2017-09-29T03:52:04.028Z,0
2017-09-29T03:52:44.559Z,0
2017-09-29T03:53:25.091Z,0
2017-09-29T03:54:05.628Z,0
2017-09-29T03:54:46.176Z,0
2017-09-29T03:55:26.736Z,0
2017-09-29T03:56:07.276Z,0
2017-09-29T03:56:47.817Z,0
2017-09-29T03:57:28.360Z,0
2017-09-29T03:58:08.890Z,0
2017-09-29T03:58:49.425Z,0
2017-09-29T03:59:29.959Z,0
2017-09-29T04:00:10.525Z,0
2017-09-29T04:00:51.074Z,0
2017-09-29T04:01:31.610Z,0
2017-09-29T04:02:12.143Z,0
2017-09-29T04:02:52.687Z,0
2017-09-29T04:03:33.226Z,0
2017-09-29T04:04:13.760Z,0
2017-09-29T04:04:54.294Z,0
2017-09-29T04:05:34.819Z,0
2017-09-29T04:06:16.093Z,0
2017-09-29T04:06:56.634Z,0
2017-09-29T04:07:37.173Z,0
2017-09-29T04:08:18.338Z,0
2017-09-29T04:08:58.742Z,0
2017-09-29T04:09:39.288Z,0
2017-09-29T04:10:19.807Z,0
2017-09-29T04:11:00.335Z,0
2017-09-29T04:11:40.868Z,0
2017-09-29T04:12:21.395Z,0
2017-09-29T04:13:01.921Z,0
2017-09-29T04:13:42.453Z,0
2017-09-29T04:14:22.989Z,0
2017-09-29T04:15:03.523Z,0
2017-09-29T04:15:44.054Z,0
2017-09-29T04:16:24.673Z,0
2017-09-29T04:17:05.300Z,0
2017-09-29T04:17:47.314Z,0
2017-09-29T04:18:27.888Z,0
2017-09-29T04:19:08.434Z,0
2017-09-29T04:19:48.964Z,0
2017-09-29T04:20:29.478Z,0
2017-09-29T04:21:10.028Z,0
2017-09-29T04:21:50.572Z,0
2017-09-29T04:22:31.116Z,0
2017-09-29T04:23:11.671Z,0
2017-09-29T04:23:52.214Z,0
2017-09-29T04:24:32.757Z,0
2017-09-29T04:25:13.294Z,0
2017-09-29T04:25:53.832Z,0
2017-09-29T04:26:34.351Z,0
2017-09-29T04:27:14.882Z,0
2017-09-29T04:27:55.427Z,0
2017-09-29T04:28:35.963Z,0
2017-09-29T04:29:16.479Z,0
2017-09-29T04:29:57.009Z,0
2017-09-29T04:30:37.546Z,0
2017-09-29T04:31:18.079Z,0
2017-09-29T04:31:58.617Z,0
2017-09-29T04:32:39.158Z,0
2017-09-29T04:33:19.688Z,0
2017-09-29T04:34:00.251Z,0
2017-09-29T04:34:40.735Z,0
2017-09-29T04:35:22.228Z,0
2017-09-29T04:36:02.746Z,0
2017-09-29T04:36:43.295Z,0
2017-09-29T04:37:23.824Z,0
2017-09-29T04:38:04.353Z,0
2017-09-29T04:38:44.885Z,0
2017-09-29T04:39:25.428Z,0
2017-09-29T04:40:05.970Z,0
2017-09-29T04:40:46.505Z,0
2017-09-29T04:41:27.039Z,0
2017-09-29T04:42:07.526Z,0
2017-09-29T04:42:48.057Z,0
2017-09-29T04:43:28.577Z,0
2017-09-29T04:44:09.109Z,0
2017-09-29T04:44:49.643Z,0
2017-09-29T04:45:30.184Z,0
2017-09-29T04:46:10.718Z,0
2017-09-29T04:46:51.226Z,0
2017-09-29T04:47:31.726Z,0
2017-09-29T04:48:12.258Z,0
2017-09-29T04:48:52.849Z,0
2017-09-29T04:49:34.222Z,0
2017-09-29T04:50:21.140Z,0
2017-09-29T04:51:01.673Z,0
2017-09-29T04:51:42.206Z,0
2017-09-29T04:52:22.745Z,0
2017-09-29T04:53:03.320Z,0
2017-09-29T04:53:43.879Z,0
2017-09-29T04:54:24.340Z,0
2017-09-29T04:55:04.882Z,0
2017-09-29T04:55:45.384Z,0
2017-09-29T04:56:25.891Z,0
2017-09-29T04:57:06.413Z,0
2017-09-29T04:57:46.923Z,0
2017-09-29T04:58:27.396Z,0
2017-09-29T04:59:07.914Z,0
2017-09-29T04:59:48.427Z,0
2017-09-29T05:00:28.963Z,0
2017-09-29T05:01:09.491Z,0
2017-09-29T05:01:50.006Z,0
2017-09-29T05:02:30.528Z,0
2017-09-29T05:03:11.038Z,0
2017-09-29T05:03:51.684Z,0
2017-09-29T05:04:32.250Z,0
2017-09-29T05:05:12.768Z,0
2017-09-29T05:05:53.304Z,0
2017-09-29T05:06:33.840Z,0
2017-09-29T05:07:14.377Z,0
2017-09-29T05:07:54.918Z,0
2017-09-29T05:08:35.464Z,0
2017-09-29T05:09:16.003Z,0
2017-09-29T05:09:56.546Z,0
2017-09-29T05:10:37.076Z,0
2017-09-29T05:11:17.615Z,0
2017-09-29T05:11:58.154Z,0
2017-09-29T05:12:38.694Z,0
2017-09-29T05:13:19.228Z,0
2017-09-29T05:13:59.751Z,0
2017-09-29T05:14:40.449Z,0
2017-09-29T05:15:21.047Z,0
2017-09-29T05:16:01.584Z,0
2017-09-29T05:16:42.126Z,0
2017-09-29T05:17:22.656Z,0
2017-09-29T05:18:03.194Z,0
2017-09-29T05:18:43.732Z,0
2017-09-29T05:19:24.260Z,0
2017-09-29T05:20:04.797Z,0
2017-09-29T05:20:45.342Z,0
2017-09-29T05:21:25.880Z,0
2017-09-29T05:22:06.421Z,0
2017-09-29T05:22:46.968Z,0
2017-09-29T05:23:27.508Z,0
2017-09-29T05:24:08.050Z,0
2017-09-29T05:24:48.590Z,0
2017-09-29T05:25:29.125Z,0
2017-09-29T05:26:09.665Z,0
2017-09-29T05:26:50.214Z,0
2017-09-29T05:27:30.753Z,0
2017-09-29T05:28:11.293Z,0
2017-09-29T05:28:51.835Z,0
2017-09-29T05:29:32.407Z,0
2017-09-29T05:30:12.947Z,0
2017-09-29T05:30:53.498Z,0
2017-09-29T05:31:34.039Z,0
2017-09-29T05:32:14.579Z,0
2017-09-29T05:32:55.115Z,0
2017-09-29T05:33:35.658Z,0
2017-09-29T05:34:16.193Z,0
2017-09-29T05:34:56.737Z,5
2017-09-29T05:35:37.302Z,5
2017-09-29T05:36:17.837Z,5
2017-09-29T05:36:58.379Z,5
2017-09-29T05:37:38.925Z,5
2017-09-29T05:38:19.466Z,5
2017-09-29T05:38:59.982Z,5
2017-09-29T05:39:40.521Z,5
2017-09-29T05:40:21.065Z,10
2017-09-29T05:41:01.606Z,10
2017-09-29T05:41:42.149Z,10
2017-09-29T05:42:22.694Z,10
2017-09-29T05:43:03.231Z,10
2017-09-29T05:43:43.770Z,10
2017-09-29T05:44:24.321Z,10
2017-09-29T05:45:04.880Z,10
2017-09-29T05:45:45.404Z,10
2017-09-29T05:46:25.932Z,10
2017-09-29T05:47:06.469Z,10
2017-09-29T05:47:47.009Z,10
2017-09-29T05:48:27.549Z,10
2017-09-29T05:49:08.088Z,10
2017-09-29T05:49:48.630Z,10
2017-09-29T05:50:29.168Z,10
2017-09-29T05:51:09.730Z,10
2017-09-29T05:51:50.269Z,10
2017-09-29T05:52:30.813Z,10
2017-09-29T05:53:11.356Z,10
2017-09-29T05:53:51.913Z,10
2017-09-29T05:54:32.456Z,10
2017-09-29T05:55:13.045Z,10
2017-09-29T05:55:53.588Z,10
2017-09-29T05:56:34.159Z,10
2017-09-29T05:57:14.644Z,10
2017-09-29T05:57:55.185Z,10
2017-09-29T05:58:35.721Z,10
2017-09-29T05:59:16.264Z,10
2017-09-29T05:59:56.803Z,10
2017-09-29T06:00:37.351Z,15
2017-09-29T06:01:17.888Z,15
2017-09-29T06:01:58.445Z,15
2017-09-29T06:02:38.984Z,20
2017-09-29T06:03:19.519Z,20
2017-09-29T06:04:00.062Z,25
2017-09-29T06:04:40.601Z,25
2017-09-29T06:05:21.145Z,25
2017-09-29T06:06:01.670Z,25
2017-09-29T06:06:42.229Z,30
2017-09-29T06:07:22.771Z,30
2017-09-29T06:08:03.309Z,30
2017-09-29T06:08:43.851Z,30
2017-09-29T06:09:24.390Z,35
2017-09-29T06:10:04.941Z,35
2017-09-29T06:10:45.477Z,35
2017-09-29T06:11:26.020Z,40
2017-09-29T06:12:06.559Z,40
2017-09-29T06:12:47.098Z,40
2017-09-29T06:13:27.636Z,40
2017-09-29T06:14:08.188Z,40
2017-09-29T06:14:48.729Z,40
2017-09-29T06:15:29.268Z,45
2017-09-29T06:16:09.809Z,45
2017-09-29T06:16:50.355Z,45
2017-09-29T06:17:30.915Z,50
2017-09-29T06:18:11.448Z,50
2017-09-29T06:18:52.000Z,55
2017-09-29T06:19:32.534Z,60
2017-09-29T06:20:13.070Z,65
2017-09-29T06:20:53.612Z,70
2017-09-29T06:21:34.151Z,70
2017-09-29T06:22:14.687Z,75
2017-09-29T06:22:55.224Z,75
2017-09-29T06:23:35.763Z,75
2017-09-29T06:24:16.303Z,80
2017-09-29T06:24:56.842Z,85
2017-09-29T06:25:37.378Z,85
2017-09-29T06:26:17.916Z,85
2017-09-29T06:26:58.455Z,85
2017-09-29T06:27:38.992Z,85
2017-09-29T06:28:19.532Z,85
2017-09-29T06:29:00.078Z,85
2017-09-29T06:29:40.623Z,90
2017-09-29T06:30:21.164Z,90
2017-09-29T06:31:01.698Z,90
2017-09-29T06:31:42.249Z,90
2017-09-29T06:32:22.790Z,90
2017-09-29T06:33:03.331Z,90
2017-09-29T06:33:43.871Z,95
2017-09-29T06:34:24.413Z,95
2017-09-29T06:35:04.946Z,95
2017-09-29T06:35:45.489Z,95
2017-09-29T06:36:26.039Z,95
2017-09-29T06:37:06.582Z,100
2017-09-29T06:37:47.124Z,100
2017-09-29T06:38:27.668Z,100
2017-09-29T06:39:08.247Z,100
2017-09-29T06:39:48.787Z,100
2017-09-29T06:40:29.321Z,105
2017-09-29T06:41:09.862Z,105
2017-09-29T06:41:50.399Z,105
2017-09-29T06:42:30.938Z,105
2017-09-29T06:43:11.480Z,105
2017-09-29T06:43:52.022Z,110
2017-09-29T06:44:32.564Z,110
2017-09-29T06:45:13.108Z,110
2017-09-29T06:45:53.648Z,110
2017-09-29T06:46:34.195Z,110
2017-09-29T06:47:14.728Z,110
2017-09-29T06:47:55.270Z,115
2017-09-29T06:48:35.807Z,115
2017-09-29T06:49:16.348Z,115
2017-09-29T06:49:56.892Z,115
2017-09-29T06:50:37.429Z,115
2017-09-29T06:51:17.968Z,115
2017-09-29T06:51:58.509Z,115
2017-09-29T06:52:39.053Z,115
2017-09-29T06:53:19.595Z,115
2017-09-29T06:54:00.137Z,115
2017-09-29T06:54:40.674Z,115
2017-09-29T06:55:21.215Z,120
2017-09-29T06:56:01.744Z,120
2017-09-29T06:56:42.285Z,120
2017-09-29T06:57:22.825Z,125
2017-09-29T06:58:03.361Z,125
2017-09-29T06:58:43.901Z,130
2017-09-29T06:59:24.437Z,130
2017-09-29T07:00:04.979Z,130
2017-09-29T07:00:45.519Z,135
2017-09-29T07:01:26.058Z,135
2017-09-29T07:02:06.592Z,140
2017-09-29T07:02:47.136Z,140
2017-09-29T07:03:27.680Z,140
2017-09-29T07:04:08.216Z,135
2017-09-29T07:04:48.759Z,135
2017-09-29T07:05:29.297Z,135
2017-09-29T07:06:09.847Z,140
2017-09-29T07:06:50.372Z,140
2017-09-29T07:07:30.925Z,140
2017-09-29T07:08:11.464Z,140
2017-09-29T07:08:52.016Z,140
2017-09-29T07:09:32.541Z,145
2017-09-29T07:10:13.082Z,145
2017-09-29T07:10:53.623Z,145
2017-09-29T07:11:34.154Z,150
2017-09-29T07:12:14.702Z,150
2017-09-29T07:12:55.253Z,150
2017-09-29T07:13:35.794Z,150
2017-09-29T07:14:16.330Z,150
2017-09-29T07:14:56.872Z,150
2017-09-29T07:15:37.415Z,150
2017-09-29T07:16:17.954Z,150
2017-09-29T07:16:58.513Z,150
2017-09-29T07:17:39.052Z,150
2017-09-29T07:18:19.584Z,150
2017-09-29T07:19:00.122Z,150
2017-09-29T07:19:40.663Z,150
2017-09-29T07:20:21.211Z,150
2017-09-29T07:21:01.743Z,150
2017-09-29T07:21:42.281Z,155
2017-09-29T07:22:22.821Z,155
2017-09-29T07:23:03.360Z,160
2017-09-29T07:23:43.900Z,160
2017-09-29T07:24:24.435Z,160
2017-09-29T07:25:04.981Z,160
2017-09-29T07:25:45.524Z,165
2017-09-29T07:26:26.064Z,170
2017-09-29T07:27:06.615Z,165
2017-09-29T07:27:47.145Z,165
2017-09-29T07:28:27.685Z,170
2017-09-29T07:29:08.230Z,170
2017-09-29T07:29:48.765Z,170
2017-09-29T07:30:29.305Z,170
2017-09-29T07:31:09.842Z,165
2017-09-29T07:31:50.383Z,165
2017-09-29T07:32:30.933Z,170
2017-09-29T07:33:11.477Z,175
2017-09-29T07:33:52.016Z,175
2017-09-29T07:34:32.560Z,175
2017-09-29T07:35:13.096Z,175
2017-09-29T07:35:53.635Z,170
2017-09-29T07:36:34.181Z,170
2017-09-29T07:37:14.725Z,165
2017-09-29T07:37:55.268Z,165
2017-09-29T07:38:35.813Z,165
2017-09-29T07:39:16.350Z,165
2017-09-29T07:39:56.893Z,165
2017-09-29T07:40:37.439Z,165
2017-09-29T07:41:17.981Z,165
2017-09-29T07:41:58.520Z,165
2017-09-29T07:42:39.059Z,165
2017-09-29T07:43:19.595Z,160
2017-09-29T07:44:00.136Z,160
2017-09-29T07:44:40.673Z,160
2017-09-29T07:45:21.210Z,160
2017-09-29T07:46:01.752Z,155
2017-09-29T07:46:42.296Z,150
2017-09-29T07:47:22.864Z,145
2017-09-29T07:48:03.407Z,145
2017-09-29T07:48:43.949Z,140
2017-09-29T07:49:24.492Z,135
2017-09-29T07:50:05.098Z,130
2017-09-29T07:50:45.569Z,135
2017-09-29T07:51:26.107Z,125
2017-09-29T07:52:06.648Z,125
2017-09-29T07:52:47.190Z,120
2017-09-29T07:53:27.728Z,120
2017-09-29T07:54:08.277Z,120
2017-09-29T07:54:48.815Z,120
2017-09-29T07:55:29.349Z,120
2017-09-29T07:56:09.896Z,120
2017-09-29T07:56:50.433Z,125
2017-09-29T07:57:30.976Z,125
2017-09-29T07:58:11.515Z,125
2017-09-29T07:58:52.054Z,125
2017-09-29T07:59:32.596Z,130
2017-09-29T08:00:13.138Z,125
2017-09-29T08:00:53.676Z,120
2017-09-29T08:01:34.208Z,120
2017-09-29T08:02:14.762Z,120
2017-09-29T08:02:55.304Z,120
2017-09-29T08:03:35.843Z,130
2017-09-29T08:04:16.385Z,130
2017-09-29T08:04:56.920Z,135
2017-09-29T08:05:37.461Z,135
2017-09-29T08:06:18.003Z,135
2017-09-29T08:06:58.558Z,135
2017-09-29T08:07:39.079Z,140
2017-09-29T08:08:19.627Z,140
2017-09-29T08:09:00.168Z,140
2017-09-29T08:09:40.709Z,145
2017-09-29T08:10:21.257Z,150
2017-09-29T08:11:01.797Z,150
2017-09-29T08:11:42.339Z,150
2017-09-29T08:12:22.878Z,150
2017-09-29T08:13:03.418Z,155
2017-09-29T08:13:43.961Z,155
2017-09-29T08:14:24.500Z,155
2017-09-29T08:15:05.042Z,155
2017-09-29T08:15:45.586Z,160
2017-09-29T08:16:26.129Z,160
2017-09-29T08:17:06.666Z,160
2017-09-29T08:17:47.209Z,165
2017-09-29T08:18:27.745Z,170
2017-09-29T08:19:08.278Z,175
2017-09-29T08:19:48.816Z,175
2017-09-29T08:20:29.353Z,170
2017-09-29T08:21:09.895Z,195
2017-09-29T08:21:50.440Z,215
2017-09-29T08:22:30.983Z,215
2017-09-29T08:23:11.523Z,190
2017-09-29T08:23:52.074Z,205
2017-09-29T08:24:32.614Z,215
2017-09-29T08:25:13.156Z,220
2017-09-29T08:25:53.687Z,220
2017-09-29T08:26:34.230Z,210
2017-09-29T08:27:14.774Z,215
2017-09-29T08:27:55.315Z,220
2017-09-29T08:28:35.859Z,200
2017-09-29T08:29:16.401Z,175
2017-09-29T08:29:56.948Z,160
2017-09-29T08:30:37.492Z,160
2017-09-29T08:31:18.035Z,180
2017-09-29T08:31:58.571Z,190
2017-09-29T08:32:39.100Z,205
2017-09-29T08:33:19.638Z,225
2017-09-29T08:34:00.182Z,240
2017-09-29T08:34:40.726Z,265
2017-09-29T08:35:21.295Z,260
2017-09-29T08:36:01.825Z,265
2017-09-29T08:36:42.371Z,265
2017-09-29T08:37:22.907Z,260
2017-09-29T08:38:03.447Z,275
2017-09-29T08:38:43.988Z,300
2017-09-29T08:39:24.538Z,350
2017-09-29T08:40:05.073Z,390
2017-09-29T08:40:45.612Z,430
2017-09-29T08:41:26.146Z,460
2017-09-29T08:42:06.688Z,610
2017-09-29T08:42:47.227Z,465
2017-09-29T08:43:27.804Z,425
2017-09-29T08:44:08.340Z,320
2017-09-29T08:44:48.870Z,285
2017-09-29T08:45:29.413Z,305
2017-09-29T08:46:09.956Z,255
2017-09-29T08:46:50.496Z,335
2017-09-29T08:47:31.039Z,285
2017-09-29T08:48:11.613Z,695
2017-09-29T08:48:52.120Z,565
2017-09-29T08:49:32.660Z,540
2017-09-29T08:50:13.199Z,745
2017-09-29T08:50:53.746Z,970
2017-09-29T08:51:34.276Z,1050
2017-09-29T08:52:14.835Z,1000
2017-09-29T08:52:55.373Z,1005
2017-09-29T08:53:35.915Z,1055
2017-09-29T08:54:16.454Z,1190
2017-09-29T08:54:56.994Z,1400
2017-09-29T08:55:37.545Z,1535
2017-09-29T08:56:18.064Z,1635
2017-09-29T08:56:58.604Z,1580
2017-09-29T08:57:39.144Z,1500
2017-09-29T08:58:19.694Z,1405
2017-09-29T08:59:00.245Z,1220
2017-09-29T08:59:40.796Z,1485
2017-09-29T09:00:21.358Z,1415
2017-09-29T09:01:01.885Z,1270
2017-09-29T09:01:42.427Z,1290
2017-09-29T09:02:22.965Z,1300
2017-09-29T09:03:03.514Z,1465
2017-09-29T09:03:44.071Z,1460
2017-09-29T09:04:24.633Z,1590
2017-09-29T09:05:05.168Z,1570
2017-09-29T09:05:45.704Z,1710
2017-09-29T09:06:26.235Z,1755
2017-09-29T09:07:06.775Z,1825
2017-09-29T09:07:47.324Z,1780
2017-09-29T09:08:27.864Z,1830
2017-09-29T09:09:08.408Z,1890
2017-09-29T09:09:48.959Z,1935
2017-09-29T09:10:29.508Z,1835
2017-09-29T09:11:10.061Z,1865
2017-09-29T09:11:50.615Z,1745
2017-09-29T09:12:31.163Z,1625
2017-09-29T09:13:11.715Z,1295
2017-09-29T09:13:52.254Z,1150
2017-09-29T09:14:32.801Z,825
2017-09-29T09:15:13.350Z,825
2017-09-29T09:15:53.896Z,940
2017-09-29T09:16:34.448Z,1175
2017-09-29T09:17:14.993Z,1390
2017-09-29T09:17:55.548Z,1990
2017-09-29T09:18:36.064Z,1970
2017-09-29T09:19:16.604Z,1940
2017-09-29T09:19:57.139Z,1925
2017-09-29T09:20:37.689Z,1915
2017-09-29T09:21:18.223Z,1920
2017-09-29T09:21:58.760Z,1860
2017-09-29T09:22:39.309Z,1890
2017-09-29T09:23:19.868Z,1860
2017-09-29T09:24:00.405Z,1870
2017-09-29T09:24:40.955Z,1955
2017-09-29T09:25:21.491Z,1985
2017-09-29T09:26:02.039Z,2015
2017-09-29T09:26:42.582Z,2040
2017-09-29T09:27:23.126Z,2030
2017-09-29T09:28:03.672Z,2005
2017-09-29T09:28:44.214Z,2005
2017-09-29T09:29:24.750Z,1975
2017-09-29T09:30:05.285Z,1925
2017-09-29T09:30:45.829Z,1920
2017-09-29T09:31:26.382Z,1950
2017-09-29T09:32:06.939Z,1950
2017-09-29T09:32:47.486Z,1920
2017-09-29T09:33:28.025Z,1875
2017-09-29T09:34:08.588Z,1845
2017-09-29T09:34:50.788Z,1875
2017-09-29T09:35:31.337Z,1940
2017-09-29T09:36:11.882Z,2055
2017-09-29T09:36:52.430Z,2085
2017-09-29T09:37:33.020Z,2045
2017-09-29T09:38:13.551Z,1975
2017-09-29T09:38:54.093Z,1740
2017-09-29T09:39:34.641Z,1185
2017-09-29T09:40:15.190Z,1175
2017-09-29T09:40:55.740Z,1455
2017-09-29T09:41:36.329Z,1695
2017-09-29T09:42:16.868Z,1750